Detall de PIREP

Printer-friendly versionPDF version

[2015/08/16 07:08:00]
Flight IATA:CT2112
Pilot Number:041
Company ICAO:CAT
Aircraft Type:DC3/A
PAX:8
Aircraft Registration:PAX
Departing Airport: LEVC
Destination Airport: LEZL
Alternate Airport:LEMG
Online: VATSIM
Route:ASTRO B28 VIBAS
Flight Level:FL90
No Slew and time accel
No pause
Crash detect
Detect pilot in Cockpit between each 30 and 45 minutes
07:08 Zero fuel Weight: 20970 Lbs, Fuel Weight: 4823 Lbs
07:08 VATSIM:LEVC 160630Z 28003KT 240V320 9999 FEW030 21/15 Q1014 NOSIG
07:08 VATSIM:LEZL 160630Z VRB02KT CAVOK 20/15 Q1014 NOSIG
07:08 VOICE CATALONIAN
07:13 Parking Brakes off
07:22 Take-off
07:22 Take off Weight: 25748 Lbs
07:22 Wind: 283º @ 002 Knots Heading: 296º
07:22 POS N39º 29´ 30´´ W000º 29´ 16´´
07:22 Gear Up: 103 Knots
07:22 Flaps:1 at 103 Knots
07:22 Flaps:0 at 102 Knots
07:33 TOC
07:33 Fuel Weight: 4620 Lb
07:37 Wind:269º@017 Knots Heading: 231º Ground Speed: 170 Knots Altitude 9022 ft
07:52 Wind:262º@009 Knots Heading: 232º Ground Speed: 172 Knots Altitude 8986 ft
07:57 TOD
07:57 Fuel Weight: 4322 Lb
08:00 TOC
08:00 Fuel Weight: 4297 Lb
08:00 TOD
08:00 Fuel Weight: 4294 Lb
08:02 TOC
08:02 Fuel Weight: 4274 Lb
08:07 Wind:262º@009 Knots Heading: 231º Ground Speed: 169 Knots Altitude 9330 ft
08:09 TOD
08:09 Fuel Weight: 4177 Lb
08:15 TOC
08:15 Fuel Weight: 4118 Lb
08:22 Wind:240º@001 Knots Heading: 230º Ground Speed: 162 Knots Altitude 9780 ft
08:37 Wind:240º@001 Knots Heading: 220º Ground Speed: 173 Knots Altitude 10469 ft
08:47 TOD
08:47 Fuel Weight: 3734 Lb
08:49 TOC
08:49 Fuel Weight: 3708 Lb
08:49 TOD
08:49 Fuel Weight: 3706 Lb
08:50 TOC
08:50 Fuel Weight: 3695 Lb
08:50 TOD
08:50 Fuel Weight: 3695 Lb
08:52 Wind:266º@004 Knots Heading: 271º Ground Speed: 171 Knots Altitude 8805 ft
08:58 TOC
08:58 Fuel Weight: 3605 Lb
08:58 TOD
08:58 Fuel Weight: 3603 Lb
09:07 Wind:335º@001 Knots Heading: 263º Ground Speed: 158 Knots Altitude 6499 ft
09:20 Flaps:1 at 105 Knots
09:22 Wind:322º@002 Knots Heading: 069º Ground Speed: 100 Knots Altitude 1131 ft
09:22 Flaps:2 at 97 Knots
09:22 Flaps:3 at 89 Knots
09:23 Flaps:4 at 83 Knots
09:24 TouchDown:Rate -129 ft/min Speed: 70 Knots
09:24 VATSIM:LEZL 160900Z 03001KT CAVOK 25/14 Q1015 NOSIG
09:24 Land
09:24 Wind:317º@002 Knots
09:24 Heading: 088º
09:24 Flight Duration: 02:02
09:24 Landing Weight: 24394 Lbs
09:24 POS N37º 25´ 04´´ W005º 54´ 20´´
09:25 Parking brakes on
09:25 Block to Block Duration: 02:12
09:25 Final Fuel: 3421 Lbls
09:25 Spent Fuel: 1402 Lbls
09:25 Flight Length: 318 NM
09:25 TOD Land Length: 62 NM

Exportar CSV

Powered by Drupal - Modified by Danger4k